• Join FlightAware (Why Join?)
  • Login
  • US Flag 
09:17AM EDT


 

Airport Tracker/Info


-or-


 

Live Flight TrackerFlight Track Log ✈ EJA831 ✈ 27-Sep-2013 ✈ KVNY - KMRY

Flight Track Log - Related Links

Times and Time Zones

All times are in EDT time to prevent confusion due to time zone crossing. See the EJA831 flight status page for this flight to view local times or setup timezone preferences in your user account.

Time Position Orientation Groundspeed Altitude Reporting Facility
EDT Latitude Longitude Course Direction KTS MPH feet Rate Location/Type
03:13PM 34.4561 -118.6164 330° Northwest 282 325 10,700  Level Los Angeles Center
03:14PM 34.5211 -118.6628 330° Northwest 271 312 14,600 2,700 Climbing Los Angeles Center
03:15PM 34.5864 -118.7083 330° Northwest 279 321 16,400 1,440 Climbing Los Angeles Center
03:16PM 34.6597 -118.7606 330° Northwest 315 362 17,700 720 Climbing Los Angeles Center
03:17PM 34.7503 -118.8458 322° Northwest 350 403 18,000 120 Climbing Los Angeles Center
03:18PM 34.8153 -118.9356 311° West 356 410 18,000  Level Los Angeles Center
03:19PM 34.8786 -119.0236 311° West 350 403 18,000  Level Los Angeles Center
03:20PM 34.9444 -119.1133 312° West 350 403 18,000  Level Los Angeles Center
03:21PM 35.0072 -119.2042 310° West 351 404 18,000  Level Los Angeles Center
03:22PM 35.0725 -119.2961 311° West 356 410 18,000  Level Los Angeles Center
03:23PM 35.1506 -119.4008 312° West 352 405 18,000  Level Los Angeles Center
03:24PM 35.2136 -119.4892 311° West 347 399 18,000  Level Los Angeles Center
03:25PM 35.2767 -119.5797 310° West 351 404 18,000  Level Los Angeles Center
03:26PM 35.3419 -119.6706 311° West 355 409 18,000  Level Los Angeles Center
03:27PM 35.4072 -119.7619 311° West 359 413 18,000  Level Los Angeles Center
03:28PM 35.4844 -119.8689 312° West 354 407 18,000  Level Los Angeles Center
03:29PM 35.5492 -119.9586 312° West 353 406 18,000  Level Los Angeles Center
03:30PM 35.6136 -120.0461 312° West 351 404 18,000  Level Los Angeles Center
03:31PM 35.6522 -120.0992 312° West 350 403 18,000  Level Oakland Center
03:32PM 35.7272 -120.2058 311° West 348 400 18,000  Level Oakland Center
03:33PM 35.7900 -120.2936 311° West 346 398 18,000  Level Oakland Center
03:34PM 35.8517 -120.3842 310° West 346 398 18,000  Level Oakland Center
03:35PM 35.9136 -120.4736 311° West 345 397 18,000  Level Oakland Center
03:36PM 35.9750 -120.5664 309° West 348 400 18,000  Level Oakland Center
03:37PM 36.0481 -120.6750 310° West 346 398 18,000 -540 Level Oakland Center
03:38PM 36.1097 -120.7675 310° West 349 402 16,900 -1,380 Descending Oakland Center
03:39PM 36.1692 -120.8569 309° West 340 391 15,200 -1,680 Descending Oakland Center
03:40PM 36.2275 -120.9433 310° West 332 382 13,500 -1,680 Descending Oakland Center
03:41PM 36.2864 -121.0294 310° West 329 379 11,800 -1,680 Descending Oakland Center
03:42PM 36.3375 -121.1083 309° West 299 344 10,100 -1,680 Descending Oakland Center
03:43PM 36.3869 -121.1831 309° West 283 326 8,400 -1,860 Descending Oakland Center
03:45PM 36.4428 -121.2681 309° West 268 308 6,400 -1,260 Descending Oakland Center
03:46PM 36.4889 -121.3381 309° West 265 305 5,900 -300 Descending Oakland Center
03:47PM 36.5356 -121.4103 309° West 266 306 5,900  Level Oakland Center
03:48PM 36.5731 -121.4678 309° West 223 257 5,900  Level Oakland Center
03:49PM 36.6064 -121.5250 306° West 206 237 5,900  Level Oakland Center
03:50PM 36.6411 -121.5847 306° West 209 241 5,900  Level Oakland Center
03:50PM 36.6167 -121.6333 238° Southwest 237 273 5,900  Level Northern Cal TRACON
03:51PM 36.5833 -121.5667 122° Southeast 216 249 5,900  Level Northern Cal TRACON
03:52PM 36.5667 -121.5000 107° East 196 226 5,900  Level Northern Cal TRACON
03:53PM 36.5167 -121.4667 152° Southeast 193 222 5,900  Level Northern Cal TRACON
03:54PM 36.4833 -121.4167 130° Southeast 194 223 5,900  Level Northern Cal TRACON
03:55PM 36.4333 -121.3833 152° Southeast 189 217 5,900  Level Northern Cal TRACON
03:56PM 36.4000 -121.3833 180° South 215 247 5,900  Level Northern Cal TRACON
03:57PM 36.4333 -121.4333 310° West 177 204 5,900  Level Northern Cal TRACON
03:58PM 36.4667 -121.4833 310° West 183 211 5,900  Level Northern Cal TRACON
03:59PM 36.4833 -121.5333 293° West 180 207 5,900 -420 Level Northern Cal TRACON
04:00PM 36.5000 -121.6000 287° West 183 211 5,100 -780 Descending Northern Cal TRACON
04:01PM 36.5103 -121.6189 304° West 178 205 4,800 -840 Descending Oakland Center
04:01PM 36.5167 -121.6500 284° West 175 201 4,300 -1,020 Descending Northern Cal TRACON
04:02PM 36.5333 -121.7000 293° West 174 200 3,300 -960 Descending Northern Cal TRACON
04:03PM 36.5500 -121.7500 293° West 159 183 2,400 -1,020 Descending Northern Cal TRACON
04:04PM 36.5667 -121.8000 293° West 131 151 1,300 -1,140 Descending Northern Cal TRACON